sensor_id;sensor_type;location;lat;lon;timestamp;P1;P2;P0
44933;PMS3003;30667;43.614;1.442;2023-11-19T00:01:40;65.00;51.00;34.67
44933;PMS3003;30667;43.614;1.442;2023-11-19T00:04:05;65.67;52.00;35.00
44933;PMS3003;30667;43.614;1.442;2023-11-19T00:06:31;63.67;52.00;34.67
44933;PMS3003;30667;43.614;1.442;2023-11-19T00:08:56;63.67;53.00;35.00
44933;PMS3003;30667;43.614;1.442;2023-11-19T00:11:21;64.33;52.67;35.67
44933;PMS3003;30667;43.614;1.442;2023-11-19T00:13:47;66.00;52.67;35.00
44933;PMS3003;30667;43.614;1.442;2023-11-19T00:16:12;69.33;52.67;35.00
44933;PMS3003;30667;43.614;1.442;2023-11-19T00:18:37;60.33;49.33;33.00
44933;PMS3003;30667;43.614;1.442;2023-11-19T00:21:03;62.00;48.67;33.00
44933;PMS3003;30667;43.614;1.442;2023-11-19T00:23:28;62.67;50.00;33.00
44933;PMS3003;30667;43.614;1.442;2023-11-19T00:25:54;58.33;46.33;31.67
44933;PMS3003;30667;43.614;1.442;2023-11-19T00:28:19;58.00;48.33;33.00
44933;PMS3003;30667;43.614;1.442;2023-11-19T00:30:44;59.67;47.67;33.00
44933;PMS3003;30667;43.614;1.442;2023-11-19T00:33:10;61.00;48.67;32.33
44933;PMS3003;30667;43.614;1.442;2023-11-19T00:35:35;59.00;48.00;32.67
44933;PMS3003;30667;43.614;1.442;2023-11-19T00:38:01;60.33;48.33;31.33
44933;PMS3003;30667;43.614;1.442;2023-11-19T00:40:27;60.00;47.50;30.50
44933;PMS3003;30667;43.614;1.442;2023-11-19T00:42:53;62.00;48.67;31.00
44933;PMS3003;30667;43.614;1.442;2023-11-19T00:45:19;57.67;48.00;32.33
44933;PMS3003;30667;43.614;1.442;2023-11-19T00:47:44;56.33;45.33;31.67
44933;PMS3003;30667;43.614;1.442;2023-11-19T00:50:09;55.00;45.67;31.33
44933;PMS3003;30667;43.614;1.442;2023-11-19T00:52:36;59.00;45.25;30.75
44933;PMS3003;30667;43.614;1.442;2023-11-19T00:55:02;53.25;44.25;30.50
44933;PMS3003;30667;43.614;1.442;2023-11-19T00:57:29;56.50;43.00;29.00
44933;PMS3003;30667;43.614;1.442;2023-11-19T00:59:55;56.75;45.50;29.75
44933;PMS3003;30667;43.614;1.442;2023-11-19T01:02:20;57.67;44.33;29.00
44933;PMS3003;30667;43.614;1.442;2023-11-19T01:04:46;53.33;42.67;28.33
44933;PMS3003;30667;43.614;1.442;2023-11-19T01:07:11;53.33;43.67;29.00
44933;PMS3003;30667;43.614;1.442;2023-11-19T01:09:41;43.60;38.00;26.20
44933;PMS3003;30667;43.614;1.442;2023-11-19T01:12:09;46.80;40.40;27.00
44933;PMS3003;30667;43.614;1.442;2023-11-19T01:14:35;45.80;40.60;27.40
44933;PMS3003;30667;43.614;1.442;2023-11-19T01:17:01;43.00;37.60;25.00
44933;PMS3003;30667;43.614;1.442;2023-11-19T01:19:27;43.00;39.25;25.50
44933;PMS3003;30667;43.614;1.442;2023-11-19T01:21:53;41.80;36.20;25.00
44933;PMS3003;30667;43.614;1.442;2023-11-19T01:24:19;37.60;35.80;23.00
44933;PMS3003;30667;43.614;1.442;2023-11-19T01:26:45;42.50;39.50;25.50
44933;PMS3003;30667;43.614;1.442;2023-11-19T01:29:11;42.20;36.00;23.80
44933;PMS3003;30667;43.614;1.442;2023-11-19T01:31:45;36.20;34.40;23.40
44933;PMS3003;30667;43.614;1.442;2023-11-19T01:34:11;34.00;32.20;20.80
44933;PMS3003;30667;43.614;1.442;2023-11-19T01:36:37;32.50;30.25;20.25
44933;PMS3003;30667;43.614;1.442;2023-11-19T01:39:03;28.25;26.50;19.50
44933;PMS3003;30667;43.614;1.442;2023-11-19T01:41:37;28.60;27.80;19.00
44933;PMS3003;30667;43.614;1.442;2023-11-19T01:44:05;32.60;30.20;20.20
44933;PMS3003;30667;43.614;1.442;2023-11-19T01:46:31;36.00;33.40;21.00
44933;PMS3003;30667;43.614;1.442;2023-11-19T01:48:57;35.00;31.60;20.00
44933;PMS3003;30667;43.614;1.442;2023-11-19T01:51:24;32.80;31.60;21.00
44933;PMS3003;30667;43.614;1.442;2023-11-19T01:53:49;40.50;33.25;20.75
44933;PMS3003;30667;43.614;1.442;2023-11-19T01:56:15;36.25;33.00;23.00
44933;PMS3003;30667;43.614;1.442;2023-11-19T01:58:41;38.00;33.25;22.75
44933;PMS3003;30667;43.614;1.442;2023-11-19T02:01:10;41.60;35.80;24.00
44933;PMS3003;30667;43.614;1.442;2023-11-19T02:03:37;42.20;34.80;23.20
44933;PMS3003;30667;43.614;1.442;2023-11-19T02:06:02;41.00;34.50;23.50
44933;PMS3003;30667;43.614;1.442;2023-11-19T02:08:29;40.60;34.60;22.20
44933;PMS3003;30667;43.614;1.442;2023-11-19T02:10:54;37.80;33.00;23.20
44933;PMS3003;30667;43.614;1.442;2023-11-19T02:13:23;40.00;36.20;23.60
44933;PMS3003;30667;43.614;1.442;2023-11-19T02:15:50;38.60;34.60;21.80
44933;PMS3003;30667;43.614;1.442;2023-11-19T02:20:44;39.60;32.00;21.00
44933;PMS3003;30667;43.614;1.442;2023-11-19T02:23:11;32.00;30.75;21.50
44933;PMS3003;30667;43.614;1.442;2023-11-19T02:25:38;32.60;30.60;21.00
44933;PMS3003;30667;43.614;1.442;2023-11-19T02:28:05;33.60;31.80;20.00
44933;PMS3003;30667;43.614;1.442;2023-11-19T02:30:32;33.80;30.20;21.00
44933;PMS3003;30667;43.614;1.442;2023-11-19T02:33:00;32.75;32.00;21.25
44933;PMS3003;30667;43.614;1.442;2023-11-19T02:35:30;33.60;31.40;20.00
44933;PMS3003;30667;43.614;1.442;2023-11-19T02:37:57;32.40;32.40;23.20
44933;PMS3003;30667;43.614;1.442;2023-11-19T02:40:24;35.60;32.80;21.40
44933;PMS3003;30667;43.614;1.442;2023-11-19T02:42:50;35.50;29.50;20.25
44933;PMS3003;30667;43.614;1.442;2023-11-19T02:45:16;33.00;29.80;19.40
44933;PMS3003;30667;43.614;1.442;2023-11-19T02:47:41;30.20;29.40;20.60
44933;PMS3003;30667;43.614;1.442;2023-11-19T02:50:08;31.75;31.00;19.00
44933;PMS3003;30667;43.614;1.442;2023-11-19T02:52:39;31.00;29.40;20.20
44933;PMS3003;30667;43.614;1.442;2023-11-19T02:55:09;33.40;30.00;19.20
44933;PMS3003;30667;43.614;1.442;2023-11-19T02:57:37;33.20;29.00;19.40
44933;PMS3003;30667;43.614;1.442;2023-11-19T03:00:05;32.00;27.80;17.80
44933;PMS3003;30667;43.614;1.442;2023-11-19T03:02:39;37.40;32.40;22.60
44933;PMS3003;30667;43.614;1.442;2023-11-19T03:05:10;31.40;28.20;19.00
44933;PMS3003;30667;43.614;1.442;2023-11-19T03:07:36;31.40;28.20;19.40
44933;PMS3003;30667;43.614;1.442;2023-11-19T03:10:02;35.50;29.75;20.00
44933;PMS3003;30667;43.614;1.442;2023-11-19T03:12:30;34.00;29.20;19.60
44933;PMS3003;30667;43.614;1.442;2023-11-19T03:14:56;28.80;28.00;18.40
44933;PMS3003;30667;43.614;1.442;2023-11-19T03:17:22;31.00;27.50;19.00
44933;PMS3003;30667;43.614;1.442;2023-11-19T03:19:49;28.40;28.00;19.00
44933;PMS3003;30667;43.614;1.442;2023-11-19T03:22:14;28.75;27.50;19.50
44933;PMS3003;30667;43.614;1.442;2023-11-19T03:24:40;29.75;27.50;18.00
44933;PMS3003;30667;43.614;1.442;2023-11-19T03:27:05;28.75;27.00;18.00
44933;PMS3003;30667;43.614;1.442;2023-11-19T03:29:30;28.75;24.50;15.75
44933;PMS3003;30667;43.614;1.442;2023-11-19T03:31:56;27.25;25.00;16.50
44933;PMS3003;30667;43.614;1.442;2023-11-19T03:34:21;29.25;27.75;19.00
44933;PMS3003;30667;43.614;1.442;2023-11-19T03:36:46;30.00;26.75;18.00
44933;PMS3003;30667;43.614;1.442;2023-11-19T03:39:12;24.75;24.75;16.25
44933;PMS3003;30667;43.614;1.442;2023-11-19T03:41:37;29.25;27.75;17.50
44933;PMS3003;30667;43.614;1.442;2023-11-19T03:44:03;27.25;26.25;17.25
44933;PMS3003;30667;43.614;1.442;2023-11-19T03:46:28;24.00;23.00;15.75
44933;PMS3003;30667;43.614;1.442;2023-11-19T03:48:55;26.80;24.40;15.80
44933;PMS3003;30667;43.614;1.442;2023-11-19T03:51:20;25.25;23.25;14.50
44933;PMS3003;30667;43.614;1.442;2023-11-19T03:53:46;31.00;27.00;18.00
44933;PMS3003;30667;43.614;1.442;2023-11-19T03:56:11;24.50;23.00;15.00
44933;PMS3003;30667;43.614;1.442;2023-11-19T03:58:37;24.00;22.20;14.80
44933;PMS3003;30667;43.614;1.442;2023-11-19T04:01:03;25.60;23.00;15.00
44933;PMS3003;30667;43.614;1.442;2023-11-19T04:03:29;25.20;23.00;14.20
44933;PMS3003;30667;43.614;1.442;2023-11-19T04:05:55;29.75;24.00;15.00
44933;PMS3003;30667;43.614;1.442;2023-11-19T04:08:21;29.00;22.60;16.20
44933;PMS3003;30667;43.614;1.442;2023-11-19T04:10:46;25.00;23.25;14.75
44933;PMS3003;30667;43.614;1.442;2023-11-19T04:13:12;23.00;22.50;14.00
44933;PMS3003;30667;43.614;1.442;2023-11-19T04:15:37;27.50;23.50;14.00
44933;PMS3003;30667;43.614;1.442;2023-11-19T04:18:03;23.25;22.00;15.25
44933;PMS3003;30667;43.614;1.442;2023-11-19T04:20:28;28.00;23.00;17.00
44933;PMS3003;30667;43.614;1.442;2023-11-19T04:22:54;24.50;23.00;15.00
44933;PMS3003;30667;43.614;1.442;2023-11-19T04:25:19;26.50;25.50;15.00
44933;PMS3003;30667;43.614;1.442;2023-11-19T04:27:44;22.00;19.25;13.50
44933;PMS3003;30667;43.614;1.442;2023-11-19T04:30:10;22.40;19.40;14.00
44933;PMS3003;30667;43.614;1.442;2023-11-19T04:32:36;23.00;22.25;15.25
44933;PMS3003;30667;43.614;1.442;2023-11-19T04:35:02;29.60;23.60;15.20
44933;PMS3003;30667;43.614;1.442;2023-11-19T04:37:28;23.00;21.75;14.50
44933;PMS3003;30667;43.614;1.442;2023-11-19T04:39:53;27.50;22.00;14.00
44933;PMS3003;30667;43.614;1.442;2023-11-19T04:42:19;25.50;22.25;16.75
44933;PMS3003;30667;43.614;1.442;2023-11-19T04:44:47;24.60;23.40;15.40
44933;PMS3003;30667;43.614;1.442;2023-11-19T04:47:12;27.25;24.00;17.00
44933;PMS3003;30667;43.614;1.442;2023-11-19T04:49:41;26.40;24.00;16.80
44933;PMS3003;30667;43.614;1.442;2023-11-19T04:52:08;25.60;23.20;17.20
44933;PMS3003;30667;43.614;1.442;2023-11-19T04:54:33;27.50;24.75;17.50
44933;PMS3003;30667;43.614;1.442;2023-11-19T04:56:58;31.75;27.75;19.00
44933;PMS3003;30667;43.614;1.442;2023-11-19T04:59:24;36.00;31.25;19.50
44933;PMS3003;30667;43.614;1.442;2023-11-19T05:01:49;32.75;29.00;19.50
44933;PMS3003;30667;43.614;1.442;2023-11-19T05:04:15;32.00;31.40;20.20
44933;PMS3003;30667;43.614;1.442;2023-11-19T05:06:41;34.25;33.00;21.75
44933;PMS3003;30667;43.614;1.442;2023-11-19T05:09:06;31.00;30.25;20.75
44933;PMS3003;30667;43.614;1.442;2023-11-19T05:11:34;40.20;35.60;23.00
44933;PMS3003;30667;43.614;1.442;2023-11-19T05:14:02;40.50;34.75;22.50
44933;PMS3003;30667;43.614;1.442;2023-11-19T05:16:29;34.80;33.80;21.80
44933;PMS3003;30667;43.614;1.442;2023-11-19T05:18:54;37.25;34.50;23.50
44933;PMS3003;30667;43.614;1.442;2023-11-19T05:21:19;49.75;39.25;26.50
44933;PMS3003;30667;43.614;1.442;2023-11-19T05:23:45;41.25;37.75;26.00
44933;PMS3003;30667;43.614;1.442;2023-11-19T05:26:21;43.60;39.80;26.60
44933;PMS3003;30667;43.614;1.442;2023-11-19T05:28:47;47.20;40.40;25.80
44933;PMS3003;30667;43.614;1.442;2023-11-19T05:31:13;43.40;38.80;25.60
44933;PMS3003;30667;43.614;1.442;2023-11-19T05:33:38;40.50;38.00;26.00
44933;PMS3003;30667;43.614;1.442;2023-11-19T05:36:04;42.75;38.50;25.50
44933;PMS3003;30667;43.614;1.442;2023-11-19T05:38:30;40.40;35.20;23.60
44933;PMS3003;30667;43.614;1.442;2023-11-19T05:40:55;39.25;35.25;25.00
44933;PMS3003;30667;43.614;1.442;2023-11-19T05:43:21;34.25;30.50;20.75
44933;PMS3003;30667;43.614;1.442;2023-11-19T05:45:47;27.60;24.60;16.60
44933;PMS3003;30667;43.614;1.442;2023-11-19T05:48:12;27.25;25.00;17.00
44933;PMS3003;30667;43.614;1.442;2023-11-19T05:50:38;23.25;22.75;16.00
44933;PMS3003;30667;43.614;1.442;2023-11-19T05:53:03;34.20;29.80;19.00
44933;PMS3003;30667;43.614;1.442;2023-11-19T05:55:33;29.20;26.00;18.00
44933;PMS3003;30667;43.614;1.442;2023-11-19T05:57:59;27.40;26.00;18.60
44933;PMS3003;30667;43.614;1.442;2023-11-19T06:00:25;33.00;29.50;17.25
44933;PMS3003;30667;43.614;1.442;2023-11-19T06:02:52;29.60;27.00;17.20
44933;PMS3003;30667;43.614;1.442;2023-11-19T06:05:17;27.75;25.75;17.25
44933;PMS3003;30667;43.614;1.442;2023-11-19T06:07:43;30.75;29.50;19.00
44933;PMS3003;30667;43.614;1.442;2023-11-19T06:10:09;28.00;23.50;17.25
44933;PMS3003;30667;43.614;1.442;2023-11-19T06:12:35;29.60;26.60;18.40
44933;PMS3003;30667;43.614;1.442;2023-11-19T06:15:04;30.00;28.80;19.00
44933;PMS3003;30667;43.614;1.442;2023-11-19T06:17:31;29.00;27.80;18.40
44933;PMS3003;30667;43.614;1.442;2023-11-19T06:19:56;22.75;22.75;17.00
44933;PMS3003;30667;43.614;1.442;2023-11-19T06:22:21;30.00;26.25;17.00
44933;PMS3003;30667;43.614;1.442;2023-11-19T06:24:47;29.75;26.00;17.00
44933;PMS3003;30667;43.614;1.442;2023-11-19T06:27:12;33.25;29.50;18.00
44933;PMS3003;30667;43.614;1.442;2023-11-19T06:29:38;28.50;26.25;18.00
44933;PMS3003;30667;43.614;1.442;2023-11-19T06:32:05;32.80;29.00;20.60
44933;PMS3003;30667;43.614;1.442;2023-11-19T06:34:31;28.50;27.00;19.00
44933;PMS3003;30667;43.614;1.442;2023-11-19T06:36:58;32.60;31.00;19.60
44933;PMS3003;30667;43.614;1.442;2023-11-19T06:39:23;34.25;31.00;19.00
44933;PMS3003;30667;43.614;1.442;2023-11-19T06:41:48;30.50;28.00;20.00
44933;PMS3003;30667;43.614;1.442;2023-11-19T06:44:14;35.75;31.25;21.00
44933;PMS3003;30667;43.614;1.442;2023-11-19T06:46:39;31.75;31.00;22.00
44933;PMS3003;30667;43.614;1.442;2023-11-19T06:49:05;33.75;32.00;22.25
44933;PMS3003;30667;43.614;1.442;2023-11-19T06:51:32;35.60;29.60;21.40
44933;PMS3003;30667;43.614;1.442;2023-11-19T06:53:58;34.20;29.40;21.00
44933;PMS3003;30667;43.614;1.442;2023-11-19T06:56:24;31.00;29.25;21.00
44933;PMS3003;30667;43.614;1.442;2023-11-19T06:58:50;33.60;31.20;21.00
44933;PMS3003;30667;43.614;1.442;2023-11-19T07:01:17;33.00;30.00;20.40
44933;PMS3003;30667;43.614;1.442;2023-11-19T07:03:44;39.60;33.00;22.00
44933;PMS3003;30667;43.614;1.442;2023-11-19T07:06:11;33.20;29.80;21.20
44933;PMS3003;30667;43.614;1.442;2023-11-19T07:08:38;37.80;31.40;21.60
44933;PMS3003;30667;43.614;1.442;2023-11-19T07:11:03;31.80;30.00;19.40
44933;PMS3003;30667;43.614;1.442;2023-11-19T07:13:29;33.50;29.50;21.00
44933;PMS3003;30667;43.614;1.442;2023-11-19T07:15:55;28.25;25.50;18.75
44933;PMS3003;30667;43.614;1.442;2023-11-19T07:18:21;29.20;27.00;18.60
44933;PMS3003;30667;43.614;1.442;2023-11-19T07:20:47;26.60;25.60;18.40
44933;PMS3003;30667;43.614;1.442;2023-11-19T07:23:13;34.00;29.40;21.60
44933;PMS3003;30667;43.614;1.442;2023-11-19T07:25:41;34.00;30.20;21.20
44933;PMS3003;30667;43.614;1.442;2023-11-19T07:28:07;30.40;27.80;20.00
44933;PMS3003;30667;43.614;1.442;2023-11-19T07:30:35;30.20;28.80;19.00
44933;PMS3003;30667;43.614;1.442;2023-11-19T07:33:00;27.75;26.50;18.00
44933;PMS3003;30667;43.614;1.442;2023-11-19T07:35:28;30.40;28.00;19.40
44933;PMS3003;30667;43.614;1.442;2023-11-19T07:37:55;28.20;26.60;18.00
44933;PMS3003;30667;43.614;1.442;2023-11-19T07:40:21;30.40;29.20;20.00
44933;PMS3003;30667;43.614;1.442;2023-11-19T07:42:46;32.75;32.00;22.00
44933;PMS3003;30667;43.614;1.442;2023-11-19T07:45:12;33.50;29.00;19.00
44933;PMS3003;30667;43.614;1.442;2023-11-19T07:47:38;29.00;27.25;21.00
44933;PMS3003;30667;43.614;1.442;2023-11-19T07:50:03;28.75;27.25;19.00
44933;PMS3003;30667;43.614;1.442;2023-11-19T07:52:29;30.75;28.00;19.25
44933;PMS3003;30667;43.614;1.442;2023-11-19T07:54:55;34.25;28.75;19.50
44933;PMS3003;30667;43.614;1.442;2023-11-19T07:57:20;31.25;28.50;20.00
44933;PMS3003;30667;43.614;1.442;2023-11-19T07:59:46;30.25;29.75;19.00
44933;PMS3003;30667;43.614;1.442;2023-11-19T08:02:11;31.00;28.60;19.60
44933;PMS3003;30667;43.614;1.442;2023-11-19T08:04:37;31.25;26.25;17.00
44933;PMS3003;30667;43.614;1.442;2023-11-19T08:07:04;31.00;27.20;18.00
44933;PMS3003;30667;43.614;1.442;2023-11-19T08:09:30;31.25;27.00;19.25
44933;PMS3003;30667;43.614;1.442;2023-11-19T08:11:55;23.75;23.00;17.00
44933;PMS3003;30667;43.614;1.442;2023-11-19T08:14:21;26.25;22.50;15.00
44933;PMS3003;30667;43.614;1.442;2023-11-19T08:16:46;23.00;21.25;14.00
44933;PMS3003;30667;43.614;1.442;2023-11-19T08:19:12;25.25;20.75;15.00
44933;PMS3003;30667;43.614;1.442;2023-11-19T08:21:37;26.75;23.75;15.00
44933;PMS3003;30667;43.614;1.442;2023-11-19T08:24:03;27.75;23.75;17.00
44933;PMS3003;30667;43.614;1.442;2023-11-19T08:26:29;30.75;22.25;14.00
44933;PMS3003;30667;43.614;1.442;2023-11-19T08:28:54;26.00;23.50;17.00
44933;PMS3003;30667;43.614;1.442;2023-11-19T08:31:19;26.25;24.75;15.50
44933;PMS3003;30667;43.614;1.442;2023-11-19T08:33:45;31.25;24.00;16.75
44933;PMS3003;30667;43.614;1.442;2023-11-19T08:36:16;25.50;23.25;15.00
44933;PMS3003;30667;43.614;1.442;2023-11-19T08:38:43;29.60;24.80;18.00
44933;PMS3003;30667;43.614;1.442;2023-11-19T08:41:08;27.75;26.00;18.00
44933;PMS3003;30667;43.614;1.442;2023-11-19T08:43:35;27.20;27.20;18.00
44933;PMS3003;30667;43.614;1.442;2023-11-19T08:46:00;31.50;28.50;19.25
44933;PMS3003;30667;43.614;1.442;2023-11-19T08:48:25;26.50;24.75;18.25
44933;PMS3003;30667;43.614;1.442;2023-11-19T08:50:51;27.50;25.00;18.00
44933;PMS3003;30667;43.614;1.442;2023-11-19T08:53:16;29.50;26.75;17.75
44933;PMS3003;30667;43.614;1.442;2023-11-19T08:55:42;27.25;24.25;18.00
44933;PMS3003;30667;43.614;1.442;2023-11-19T08:58:07;26.75;25.25;17.75
44933;PMS3003;30667;43.614;1.442;2023-11-19T09:00:32;25.75;24.00;16.50
44933;PMS3003;30667;43.614;1.442;2023-11-19T09:02:58;24.50;22.00;15.00
44933;PMS3003;30667;43.614;1.442;2023-11-19T09:05:24;25.40;24.40;17.80
44933;PMS3003;30667;43.614;1.442;2023-11-19T09:07:49;25.50;23.75;15.50
44933;PMS3003;30667;43.614;1.442;2023-11-19T09:10:15;23.25;22.25;11.75
44933;PMS3003;30667;43.614;1.442;2023-11-19T09:12:41;24.60;21.60;15.00
44933;PMS3003;30667;43.614;1.442;2023-11-19T09:15:06;22.50;21.00;14.00
44933;PMS3003;30667;43.614;1.442;2023-11-19T09:17:32;22.80;21.60;13.20
44933;PMS3003;30667;43.614;1.442;2023-11-19T09:19:57;19.00;18.00;12.00
44933;PMS3003;30667;43.614;1.442;2023-11-19T09:22:23;21.00;19.50;13.75
44933;PMS3003;30667;43.614;1.442;2023-11-19T09:24:48;20.00;18.50;13.75
44933;PMS3003;30667;43.614;1.442;2023-11-19T09:27:14;20.00;20.00;13.75
44933;PMS3003;30667;43.614;1.442;2023-11-19T09:29:39;22.75;18.00;11.00
44933;PMS3003;30667;43.614;1.442;2023-11-19T09:32:04;20.50;19.50;12.25
44933;PMS3003;30667;43.614;1.442;2023-11-19T09:34:30;19.80;18.00;11.00
44933;PMS3003;30667;43.614;1.442;2023-11-19T09:36:56;18.80;18.00;11.20
44933;PMS3003;30667;43.614;1.442;2023-11-19T09:39:22;21.00;18.75;11.50
44933;PMS3003;30667;43.614;1.442;2023-11-19T09:41:47;17.50;16.25;11.00
44933;PMS3003;30667;43.614;1.442;2023-11-19T09:44:13;20.00;17.00;11.00
44933;PMS3003;30667;43.614;1.442;2023-11-19T09:46:40;23.00;19.60;11.80
44933;PMS3003;30667;43.614;1.442;2023-11-19T09:49:06;18.40;18.00;11.00
44933;PMS3003;30667;43.614;1.442;2023-11-19T09:51:34;21.80;19.80;11.80
44933;PMS3003;30667;43.614;1.442;2023-11-19T09:54:00;20.00;19.20;11.00
44933;PMS3003;30667;43.614;1.442;2023-11-19T09:56:26;21.00;19.25;11.25
44933;PMS3003;30667;43.614;1.442;2023-11-19T09:58:54;20.60;18.80;11.00
44933;PMS3003;30667;43.614;1.442;2023-11-19T10:01:20;19.80;19.20;13.60
44933;PMS3003;30667;43.614;1.442;2023-11-19T10:03:46;21.25;19.75;12.25
44933;PMS3003;30667;43.614;1.442;2023-11-19T10:06:12;18.80;16.80;11.40
44933;PMS3003;30667;43.614;1.442;2023-11-19T10:08:40;19.40;18.20;11.00
44933;PMS3003;30667;43.614;1.442;2023-11-19T10:11:06;18.20;17.00;11.00
44933;PMS3003;30667;43.614;1.442;2023-11-19T10:13:36;21.80;20.60;12.60
44933;PMS3003;30667;43.614;1.442;2023-11-19T10:16:08;16.80;16.40;10.20
44933;PMS3003;30667;43.614;1.442;2023-11-19T10:18:36;19.80;17.60;12.00
44933;PMS3003;30667;43.614;1.442;2023-11-19T10:21:03;20.80;18.40;12.00
44933;PMS3003;30667;43.614;1.442;2023-11-19T10:23:31;22.40;18.60;12.20
44933;PMS3003;30667;43.614;1.442;2023-11-19T10:26:02;22.25;20.25;12.00
44933;PMS3003;30667;43.614;1.442;2023-11-19T10:28:37;22.40;20.40;13.20
44933;PMS3003;30667;43.614;1.442;2023-11-19T10:31:05;20.60;18.20;12.00
44933;PMS3003;30667;43.614;1.442;2023-11-19T10:33:31;25.80;22.60;12.80
44933;PMS3003;30667;43.614;1.442;2023-11-19T10:35:57;20.50;18.00;12.00
44933;PMS3003;30667;43.614;1.442;2023-11-19T10:38:23;23.40;21.60;12.40
44933;PMS3003;30667;43.614;1.442;2023-11-19T10:40:49;17.80;17.60;12.00
44933;PMS3003;30667;43.614;1.442;2023-11-19T10:43:16;18.20;16.80;11.60
44933;PMS3003;30667;43.614;1.442;2023-11-19T10:45:42;19.20;17.60;11.60
44933;PMS3003;30667;43.614;1.442;2023-11-19T10:48:08;18.20;18.00;11.60
44933;PMS3003;30667;43.614;1.442;2023-11-19T10:50:35;20.80;18.60;12.00
44933;PMS3003;30667;43.614;1.442;2023-11-19T10:53:02;22.00;18.00;11.80
44933;PMS3003;30667;43.614;1.442;2023-11-19T10:55:29;25.60;22.00;13.80
44933;PMS3003;30667;43.614;1.442;2023-11-19T10:58:05;23.20;19.00;12.40
44933;PMS3003;30667;43.614;1.442;2023-11-19T11:03:05;19.40;19.00;12.40
44933;PMS3003;30667;43.614;1.442;2023-11-19T11:05:36;23.80;22.00;13.00
44933;PMS3003;30667;43.614;1.442;2023-11-19T11:08:03;22.60;20.40;12.80
44933;PMS3003;30667;43.614;1.442;2023-11-19T11:10:32;22.60;20.80;13.00
44933;PMS3003;30667;43.614;1.442;2023-11-19T11:13:04;21.60;20.00;13.00
44933;PMS3003;30667;43.614;1.442;2023-11-19T11:15:30;21.40;20.60;13.20
44933;PMS3003;30667;43.614;1.442;2023-11-19T11:17:57;21.50;20.75;13.00
44933;PMS3003;30667;43.614;1.442;2023-11-19T11:20:31;21.80;21.20;14.00
44933;PMS3003;30667;43.614;1.442;2023-11-19T11:31:08;23.20;20.80;13.00
44933;PMS3003;30667;43.614;1.442;2023-11-19T11:39:33;22.40;20.80;13.80
44933;PMS3003;30667;43.614;1.442;2023-11-19T11:47:23;21.80;20.60;12.40
44933;PMS3003;30667;43.614;1.442;2023-11-19T11:49:48;20.75;19.00;11.75
44933;PMS3003;30667;43.614;1.442;2023-11-19T11:52:16;22.80;18.40;11.40
44933;PMS3003;30667;43.614;1.442;2023-11-19T11:54:42;20.00;18.20;10.80
44933;PMS3003;30667;43.614;1.442;2023-11-19T11:57:08;16.25;15.00;9.50
44933;PMS3003;30667;43.614;1.442;2023-11-19T12:02:13;14.20;13.60;8.40
44933;PMS3003;30667;43.614;1.442;2023-11-19T12:04:41;12.80;12.60;7.80
44933;PMS3003;30667;43.614;1.442;2023-11-19T12:07:14;12.00;12.00;7.00
44933;PMS3003;30667;43.614;1.442;2023-11-19T12:09:42;14.80;13.00;7.60
44933;PMS3003;30667;43.614;1.442;2023-11-19T12:15:22;13.40;13.00;7.00
44933;PMS3003;30667;43.614;1.442;2023-11-19T12:20:02;13.20;13.00;7.00
44933;PMS3003;30667;43.614;1.442;2023-11-19T12:22:31;14.40;14.00;9.00
44933;PMS3003;30667;43.614;1.442;2023-11-19T12:24:56;14.00;14.00;8.00
44933;PMS3003;30667;43.614;1.442;2023-11-19T12:27:22;16.25;14.00;9.00
44933;PMS3003;30667;43.614;1.442;2023-11-19T12:29:48;14.50;13.50;9.00
44933;PMS3003;30667;43.614;1.442;2023-11-19T12:32:13;15.40;14.00;7.60
44933;PMS3003;30667;43.614;1.442;2023-11-19T12:34:39;13.25;13.00;7.00
44933;PMS3003;30667;43.614;1.442;2023-11-19T12:37:04;12.50;11.00;6.00
44933;PMS3003;30667;43.614;1.442;2023-11-19T12:39:31;14.00;12.80;7.00
44933;PMS3003;30667;43.614;1.442;2023-11-19T12:41:56;13.00;13.00;8.20
44933;PMS3003;30667;43.614;1.442;2023-11-19T12:44:24;13.40;11.80;7.00
44933;PMS3003;30667;43.614;1.442;2023-11-19T12:47:03;16.00;14.60;7.60
44933;PMS3003;30667;43.614;1.442;2023-11-19T12:49:30;13.60;13.20;7.00
44933;PMS3003;30667;43.614;1.442;2023-11-19T12:51:56;14.00;14.00;7.00
44933;PMS3003;30667;43.614;1.442;2023-11-19T12:54:36;14.25;12.75;7.25
44933;PMS3003;30667;43.614;1.442;2023-11-19T12:57:02;14.80;12.00;7.40
44933;PMS3003;30667;43.614;1.442;2023-11-19T12:59:30;13.00;11.80;7.00
44933;PMS3003;30667;43.614;1.442;2023-11-19T13:04:22;14.00;12.00;7.20
44933;PMS3003;30667;43.614;1.442;2023-11-19T13:06:49;16.00;14.00;8.00
44933;PMS3003;30667;43.614;1.442;2023-11-19T13:09:21;14.80;13.20;7.80
44933;PMS3003;30667;43.614;1.442;2023-11-19T13:11:50;15.20;14.00;8.20
44933;PMS3003;30667;43.614;1.442;2023-11-19T13:14:17;13.40;10.80;6.80
44933;PMS3003;30667;43.614;1.442;2023-11-19T13:16:43;12.60;11.80;7.60
44933;PMS3003;30667;43.614;1.442;2023-11-19T13:19:12;10.80;10.60;5.80
44933;PMS3003;30667;43.614;1.442;2023-11-19T13:21:38;13.20;11.60;6.80
44933;PMS3003;30667;43.614;1.442;2023-11-19T13:24:07;14.00;10.40;6.60
44933;PMS3003;30667;43.614;1.442;2023-11-19T13:26:33;11.80;10.80;6.60
44933;PMS3003;30667;43.614;1.442;2023-11-19T13:28:59;12.60;11.20;7.00
44933;PMS3003;30667;43.614;1.442;2023-11-19T13:31:25;11.00;10.50;6.25
44933;PMS3003;30667;43.614;1.442;2023-11-19T13:33:51;10.25;9.75;6.25
44933;PMS3003;30667;43.614;1.442;2023-11-19T13:36:16;12.00;10.00;5.75
44933;PMS3003;30667;43.614;1.442;2023-11-19T13:38:41;12.25;11.50;6.00
44933;PMS3003;30667;43.614;1.442;2023-11-19T13:41:09;8.60;8.60;5.80
44933;PMS3003;30667;43.614;1.442;2023-11-19T13:43:35;12.00;11.80;6.00
44933;PMS3003;30667;43.614;1.442;2023-11-19T13:46:01;12.60;10.00;4.20
44933;PMS3003;30667;43.614;1.442;2023-11-19T13:48:27;11.25;8.75;4.00
44933;PMS3003;30667;43.614;1.442;2023-11-19T13:50:54;11.00;10.40;5.80
44933;PMS3003;30667;43.614;1.442;2023-11-19T13:53:20;12.40;9.60;5.80
44933;PMS3003;30667;43.614;1.442;2023-11-19T13:55:45;9.75;9.00;5.00
44933;PMS3003;30667;43.614;1.442;2023-11-19T13:58:11;13.00;10.00;4.75
44933;PMS3003;30667;43.614;1.442;2023-11-19T14:00:36;11.00;10.75;6.00
44933;PMS3003;30667;43.614;1.442;2023-11-19T14:03:02;9.50;9.00;4.25
44933;PMS3003;30667;43.614;1.442;2023-11-19T14:05:28;9.40;9.20;5.20
44933;PMS3003;30667;43.614;1.442;2023-11-19T14:07:53;8.50;8.50;4.25
44933;PMS3003;30667;43.614;1.442;2023-11-19T14:10:21;9.00;9.00;4.40
44933;PMS3003;30667;43.614;1.442;2023-11-19T14:12:47;8.25;8.25;4.00
44933;PMS3003;30667;43.614;1.442;2023-11-19T14:15:12;9.50;8.50;4.50
44933;PMS3003;30667;43.614;1.442;2023-11-19T14:17:38;10.20;7.60;4.00
44933;PMS3003;30667;43.614;1.442;2023-11-19T14:20:05;7.00;7.00;3.00